Time;durP1;ratioP1;P1;durP2;ratioP2;P2;SDS_P1;SDS_P2;PMS_P1;PMS_P2;Temp;Humidity;BMP_temperature;BMP_pressure;BME280_temperature;BME280_humidity;BME280_pressure;Samples;Min_cycle;Max_cycle;Signal;HPM_P1;HPM_P2
2022/08/10 00:00:44;;;;;;;3.70;1.67;;;;;;;19.26;50.42;102221.38;5078378;28;20105;-71
2022/08/10 00:03:11;;;;;;;6.22;2.38;;;;;;;19.29;50.39;102223.88;5083608;27;20048;-71
2022/08/10 00:05:37;;;;;;;2.78;1.90;;;;;;;19.36;50.55;102222.53;5085392;27;20047;-71
2022/08/10 00:08:04;;;;;;;4.78;2.20;;;;;;;19.34;50.31;102222.59;5083914;27;20108;-71
2022/08/10 00:10:31;;;;;;;4.45;1.95;;;;;;;19.22;50.98;102225.19;5082112;27;20098;-70
2022/08/10 00:12:58;;;;;;;10.35;2.03;;;;;;;19.22;50.97;102225.19;5084909;27;20085;-70
2022/08/10 00:15:24;;;;;;;4.50;2.00;;;;;;;19.18;51.33;102216.56;5084527;27;20052;-70
2022/08/10 00:17:51;;;;;;;3.22;2.05;;;;;;;18.85;52.22;102229.34;5082133;27;20461;-70
2022/08/10 00:20:18;;;;;;;3.15;1.90;;;;;;;18.62;52.46;102238.75;5092366;27;20102;-71
2022/08/10 00:22:44;;;;;;;5.07;2.40;;;;;;;18.47;53.23;102237.00;5076964;28;20082;-71
2022/08/10 00:25:11;;;;;;;3.78;1.98;;;;;;;18.27;54.25;102232.91;5063066;28;20040;-71
2022/08/10 00:27:38;;;;;;;6.63;2.30;;;;;;;18.27;54.28;102238.22;5063222;28;20049;-71
2022/08/10 00:30:06;;;;;;;2.75;1.90;;;;;;;18.17;55.17;102231.75;5062273;28;20125;-71
2022/08/10 00:32:32;;;;;;;10.70;2.40;;;;;;;18.31;54.79;102239.72;5060672;28;20040;-71
2022/08/10 00:34:59;;;;;;;4.53;2.00;;;;;;;18.41;54.92;102240.88;5063572;28;20040;-71
2022/08/10 00:37:25;;;;;;;4.22;2.25;;;;;;;18.63;53.78;102231.63;5062279;28;20045;-71
2022/08/10 00:39:51;;;;;;;8.13;2.28;;;;;;;18.68;53.62;102233.06;5063704;28;20044;-71
2022/08/10 00:42:18;;;;;;;5.28;2.30;;;;;;;18.72;54.02;102239.03;5079106;27;21613;-71
2022/08/10 00:44:48;;;;;;;5.65;2.58;;;;;;;18.73;53.66;102228.31;5084491;27;20093;-71
2022/08/10 00:47:15;;;;;;;5.72;2.60;;;;;;;18.68;53.69;102232.19;5084324;27;20151;-71
2022/08/10 00:49:42;;;;;;;5.28;2.40;;;;;;;18.67;53.66;102226.03;5084420;28;20089;-68
2022/08/10 00:52:09;;;;;;;9.55;2.47;;;;;;;18.68;53.65;102219.78;5082224;27;20043;-67
2022/08/10 00:54:36;;;;;;;5.82;2.47;;;;;;;18.77;53.36;102221.84;5083012;27;20072;-67
2022/08/10 00:57:03;;;;;;;7.15;2.60;;;;;;;18.63;53.57;102221.00;5083963;27;20043;-67
2022/08/10 00:59:31;;;;;;;7.65;2.65;;;;;;;18.56;53.92;102211.69;5081993;27;20503;-67
2022/08/10 01:01:59;;;;;;;12.10;3.22;;;;;;;18.45;54.15;102220.28;5083836;27;20086;-67
2022/08/10 01:04:25;;;;;;;10.13;2.70;;;;;;;18.49;54.21;102201.44;5085292;27;20040;-66
2022/08/10 01:07:06;;;;;;;8.65;3.10;;;;;;;18.56;54.12;102206.38;5084077;28;20044;-66
2022/08/10 01:09:43;;;;;;;6.65;2.83;;;;;;;18.58;53.96;102202.69;5081645;28;20457;-66
2022/08/10 01:12:14;;;;;;;8.55;2.92;;;;;;;18.55;53.77;102199.38;5082709;27;20492;-66
2022/08/10 01:14:48;;;;;;;7.75;2.58;;;;;;;18.46;54.43;102204.28;5081417;27;20044;-66
2022/08/10 01:17:25;;;;;;;4.68;2.55;;;;;;;18.36;54.70;102204.94;5083032;27;20097;-66
2022/08/10 01:20:00;;;;;;;4.97;2.50;;;;;;;18.47;54.19;102198.03;5081483;27;20043;-67
2022/08/10 01:22:46;;;;;;;5.20;2.65;;;;;;;18.50;54.11;102186.34;5083368;28;20079;-66
2022/08/10 01:25:29;;;;;;;6.18;2.53;;;;;;;18.42;54.34;102202.75;5082524;28;20066;-66
2022/08/10 01:28:07;;;;;;;4.60;2.88;;;;;;;18.27;54.84;102193.06;5078787;28;20086;-67
2022/08/10 01:30:36;;;;;;;4.65;2.60;;;;;;;18.21;54.74;102188.13;5072184;28;20044;-66
2022/08/10 01:33:07;;;;;;;5.93;2.40;;;;;;;18.28;54.72;102197.44;5083029;27;20048;-66
2022/08/10 01:35:39;;;;;;;4.78;2.60;;;;;;;18.41;54.64;102201.03;5082992;28;20520;-66
2022/08/10 01:38:11;;;;;;;6.25;2.85;;;;;;;18.29;55.02;102198.28;5083756;28;20044;-67
2022/08/10 01:40:44;;;;;;;4.60;2.60;;;;;;;18.35;54.93;102203.22;5075718;28;20067;-66
2022/08/10 01:43:12;;;;;;;5.40;2.38;;;;;;;18.27;54.78;102194.88;5082726;28;20040;-66
2022/08/10 01:45:44;;;;;;;5.00;2.55;;;;;;;18.23;55.12;102191.53;5087830;28;20564;-66
2022/08/10 01:48:29;;;;;;;3.90;2.40;;;;;;;18.22;55.37;102189.81;5084569;28;20090;-66
2022/08/10 01:51:02;;;;;;;5.18;2.60;;;;;;;18.26;54.96;102187.84;5066302;28;20060;-66
2022/08/10 01:53:30;;;;;;;;;;;;;;;18.31;55.20;102189.28;5085773;27;20109;-66
2022/08/10 01:55:57;;;;;;;7.18;3.22;;;;;;;18.24;55.25;102187.94;5086664;27;19927;-66
2022/08/10 01:58:25;;;;;;;6.07;2.70;;;;;;;18.13;55.41;102185.09;5085314;27;20550;-66
2022/08/10 02:00:55;;;;;;;3.90;2.30;;;;;;;18.11;55.61;102194.94;5078672;28;20044;-66
2022/08/10 02:03:23;;;;;;;4.32;2.28;;;;;;;18.11;55.78;102184.31;5086549;28;20044;-66
2022/08/10 02:05:54;;;;;;;5.57;2.55;;;;;;;18.16;55.83;102192.88;5087265;28;20059;-67
2022/08/10 02:08:22;;;;;;;13.30;2.58;;;;;;;18.06;56.25;102197.03;5084540;28;20051;-67
2022/08/10 02:10:50;;;;;;;6.88;2.83;;;;;;;18.14;55.97;102197.41;5086393;28;20044;-67
2022/08/10 02:13:18;;;;;;;6.65;3.35;;;;;;;18.08;56.49;102197.78;5086318;28;20342;-67
2022/08/10 02:15:48;;;;;;;7.13;2.80;;;;;;;17.88;57.03;102198.13;5086303;28;20044;-67
2022/08/10 02:18:16;;;;;;;4.50;2.65;;;;;;;17.76;57.29;102190.88;5086232;27;20044;-67
2022/08/10 02:20:46;;;;;;;3.72;2.60;;;;;;;17.89;57.03;102190.06;5085106;27;20036;-67
2022/08/10 02:23:17;;;;;;;4.03;2.65;;;;;;;17.89;56.83;102194.50;5086671;27;20044;-67
2022/08/10 02:25:44;;;;;;;4.55;2.47;;;;;;;17.86;56.80;102192.03;5078920;27;20487;-67
2022/08/10 02:28:14;;;;;;;8.45;2.53;;;;;;;17.94;57.15;102193.28;5084589;27;20044;-67
2022/08/10 02:30:41;;;;;;;6.63;2.17;;;;;;;17.99;56.90;102196.53;5083802;27;20044;-67
2022/08/10 02:33:09;;;;;;;5.07;2.58;;;;;;;17.97;56.48;102187.81;5087223;28;20141;-67
2022/08/10 02:35:38;;;;;;;5.63;2.92;;;;;;;18.03;56.33;102197.22;5085424;28;20466;-67
2022/08/10 02:38:07;;;;;;;7.78;2.65;;;;;;;17.92;57.18;102184.56;5086399;28;20055;-67
2022/08/10 02:40:41;;;;;;;3.63;2.38;;;;;;;17.91;57.01;102188.19;5082582;28;20048;-67
2022/08/10 02:43:18;;;;;;;5.07;2.65;;;;;;;17.88;56.97;102187.50;5083649;28;20048;-67
2022/08/10 02:45:49;;;;;;;3.83;2.38;;;;;;;17.89;57.07;102189.19;5087124;28;20044;-67
2022/08/10 02:48:19;;;;;;;5.32;2.38;;;;;;;17.66;57.99;102185.28;5086640;28;20089;-67
2022/08/10 02:50:54;;;;;;;8.00;2.67;;;;;;;17.69;57.77;102187.72;5076018;27;20078;-67
2022/08/10 02:53:27;;;;;;;4.57;2.55;;;;;;;17.74;57.40;102195.41;5084812;27;20089;-67
2022/08/10 02:55:58;;;;;;;7.43;2.75;;;;;;;17.67;58.06;102189.59;5084136;27;20040;-67
2022/08/10 02:58:31;;;;;;;5.97;2.85;;;;;;;17.44;58.53;102192.72;5086473;27;20096;-67
2022/08/10 03:00:59;;;;;;;;;;;;;;;17.38;58.44;102188.59;5085285;28;20044;-66
2022/08/10 03:03:30;;;;;;;3.97;2.85;;;;;;;17.29;59.48;102190.94;5085354;28;19920;-66
2022/08/10 03:06:01;;;;;;;7.00;2.80;;;;;;;17.23;59.62;102196.56;5085069;28;20065;-66
2022/08/10 03:08:32;;;;;;;5.78;2.60;;;;;;;17.33;59.53;102192.47;5086045;28;20040;-66
2022/08/10 03:11:01;;;;;;;6.40;2.70;;;;;;;17.41;59.20;102193.72;5084651;28;20093;-66
2022/08/10 03:13:31;;;;;;;5.78;2.72;;;;;;;17.49;59.17;102196.81;5085076;28;20419;-66
2022/08/10 03:16:00;;;;;;;6.65;3.10;;;;;;;17.46;59.27;102194.34;5085247;28;20040;-66
2022/08/10 03:18:26;;;;;;;5.38;2.70;;;;;;;17.52;58.71;102196.63;5084940;27;20109;-66
2022/08/10 03:20:55;;;;;;;6.78;2.80;;;;;;;17.31;59.96;102197.84;5085804;27;20056;-66
2022/08/10 03:23:24;;;;;;;4.00;2.50;;;;;;;17.48;59.03;102192.44;5085000;27;20113;-66
2022/08/10 03:25:55;;;;;;;5.55;2.70;;;;;;;17.33;59.77;102190.66;5083585;27;20082;-66
2022/08/10 03:28:22;;;;;;;9.18;2.80;;;;;;;17.31;59.98;102192.56;5085387;27;20124;-66
2022/08/10 03:30:49;;;;;;;5.82;2.70;;;;;;;17.14;61.02;102197.97;5082714;28;20443;-66
2022/08/10 03:33:17;;;;;;;7.85;2.70;;;;;;;17.07;61.06;102199.25;5083896;28;20048;-66
2022/08/10 03:35:44;;;;;;;8.82;2.90;;;;;;;17.11;61.17;102192.81;5086256;28;20040;-66
2022/08/10 03:38:10;;;;;;;4.55;3.38;;;;;;;17.10;61.45;102193.78;5086051;28;20728;-66
2022/08/10 03:40:40;;;;;;;6.40;3.00;;;;;;;17.07;61.64;102195.75;5074160;28;20558;-66
2022/08/10 03:43:09;;;;;;;4.57;2.60;;;;;;;17.15;61.55;102196.13;5078050;28;20113;-66
2022/08/10 03:45:36;;;;;;;7.32;3.25;;;;;;;17.22;61.21;102195.72;5085483;28;20044;-66
2022/08/10 03:48:04;;;;;;;10.00;3.60;;;;;;;17.19;62.00;102202.97;5082865;28;20044;-66
2022/08/10 03:50:31;;;;;;;4.78;2.60;;;;;;;17.09;61.86;102210.59;5080399;27;20048;-66
2022/08/10 03:52:58;;;;;;;6.25;3.00;;;;;;;17.11;61.77;102211.34;5086221;28;20114;-66
2022/08/10 03:55:25;;;;;;;7.28;3.13;;;;;;;17.27;61.05;102203.41;5084044;28;20093;-66
2022/08/10 03:57:52;;;;;;;3.92;3.10;;;;;;;17.19;61.68;102214.44;5082712;27;20089;-66
2022/08/10 04:00:19;;;;;;;6.60;3.40;;;;;;;17.18;61.81;102217.19;5081840;27;20048;-66
2022/08/10 04:02:46;;;;;;;7.00;2.72;;;;;;;17.14;62.01;102208.56;5083628;28;20123;-66
2022/08/10 04:05:14;;;;;;;5.55;2.83;;;;;;;17.02;62.20;102211.88;5084587;28;20682;-66
2022/08/10 04:07:41;;;;;;;12.07;3.42;;;;;;;16.91;63.03;102216.91;5085926;28;20066;-66
2022/08/10 04:10:08;;;;;;;9.80;3.15;;;;;;;17.06;62.31;102208.13;5082582;27;20044;-67
2022/08/10 04:12:34;;;;;;;12.40;3.15;;;;;;;17.15;62.38;102210.25;5083874;27;20047;-67
2022/08/10 04:15:02;;;;;;;9.95;3.53;;;;;;;17.22;62.01;102213.44;5084788;27;20136;-67
2022/08/10 04:17:28;;;;;;;6.10;2.70;;;;;;;17.22;62.07;102214.25;5083617;27;20048;-67
2022/08/10 04:19:57;;;;;;;5.22;2.78;;;;;;;17.25;62.14;102218.56;5082610;27;20101;-67
2022/08/10 04:22:26;;;;;;;8.50;3.00;;;;;;;17.17;62.73;102218.13;5084749;27;20044;-67
2022/08/10 04:24:57;;;;;;;3.83;3.05;;;;;;;17.24;62.47;102227.44;5084005;27;20052;-67
2022/08/10 04:27:24;;;;;;;7.55;2.83;;;;;;;17.17;62.86;102226.09;5083306;27;20075;-67
2022/08/10 04:29:50;;;;;;;5.60;2.83;;;;;;;17.10;63.39;102230.88;5082506;27;20079;-67
2022/08/10 04:32:20;;;;;;;7.38;3.08;;;;;;;17.36;62.47;102222.31;5083841;28;20141;-67
2022/08/10 04:34:48;;;;;;;7.45;3.20;;;;;;;17.37;62.69;102223.16;5085388;27;20044;-67
2022/08/10 04:37:17;;;;;;;7.50;2.50;;;;;;;17.40;62.86;102223.88;5083801;27;20090;-67
2022/08/10 04:39:44;;;;;;;3.55;2.80;;;;;;;17.38;62.81;102225.72;5084677;27;20073;-67
2022/08/10 04:42:11;;;;;;;5.70;3.28;;;;;;;17.16;64.26;102219.91;5085698;27;20044;-67
2022/08/10 04:44:38;;;;;;;5.25;3.17;;;;;;;17.16;64.67;102222.56;5083019;27;20048;-67
2022/08/10 04:47:05;;;;;;;6.60;3.17;;;;;;;17.46;63.81;102214.69;5084082;27;20044;-67
2022/08/10 04:49:33;;;;;;;5.32;3.38;;;;;;;17.36;64.69;102217.03;5076462;27;20097;-67
2022/08/10 04:51:59;;;;;;;6.32;3.35;;;;;;;17.49;64.64;102218.03;5081781;27;20040;-66
2022/08/10 04:54:25;;;;;;;7.13;3.15;;;;;;;17.74;63.92;102222.78;5084280;27;20052;-66
2022/08/10 04:56:52;;;;;;;6.85;3.15;;;;;;;17.84;63.77;102233.75;5084109;27;20472;-67
2022/08/10 04:59:18;;;;;;;6.25;3.20;;;;;;;17.94;63.30;102237.56;5085655;27;20048;-68
2022/08/10 05:01:44;;;;;;;6.18;3.42;;;;;;;18.13;63.11;102229.34;5093169;27;20044;-67
2022/08/10 05:04:11;;;;;;;6.05;3.03;;;;;;;18.27;62.68;102224.94;5083697;28;20495;-67
2022/08/10 05:06:38;;;;;;;5.30;2.88;;;;;;;18.32;62.50;102235.28;5082061;28;20557;-67
2022/08/10 05:09:05;;;;;;;5.82;3.30;;;;;;;18.55;62.09;102236.56;5084107;28;20066;-66
2022/08/10 05:11:31;;;;;;;7.13;2.85;;;;;;;18.89;60.80;102244.13;5082676;27;20488;-67
2022/08/10 05:13:57;;;;;;;4.15;2.53;;;;;;;18.80;61.12;102245.59;5069149;28;20102;-67
2022/08/10 05:16:24;;;;;;;7.47;3.13;;;;;;;19.01;60.90;102251.34;5064635;28;20137;-67
2022/08/10 05:18:50;;;;;;;4.75;3.10;;;;;;;19.14;60.46;102246.94;5065656;28;20121;-67
2022/08/10 05:21:17;;;;;;;7.35;2.80;;;;;;;19.62;59.13;102244.78;5086782;28;20051;-67
2022/08/10 05:23:44;;;;;;;4.18;2.58;;;;;;;19.75;59.26;102249.19;5086985;28;20036;-67
2022/08/10 05:26:11;;;;;;;5.55;3.00;;;;;;;20.04;58.42;102255.22;5087054;28;20073;-67
2022/08/10 05:28:37;;;;;;;8.10;3.40;;;;;;;20.37;57.50;102250.28;5085819;27;20044;-66
2022/08/10 05:31:04;;;;;;;11.93;2.95;;;;;;;20.65;57.08;102251.91;5084287;28;20098;-66
2022/08/10 05:33:30;;;;;;;5.55;2.92;;;;;;;20.99;55.69;102255.69;5087506;27;20382;-66
2022/08/10 05:35:58;;;;;;;5.00;2.78;;;;;;;21.33;54.83;102260.31;5088079;27;20040;-66
2022/08/10 05:38:27;;;;;;;5.45;2.75;;;;;;;21.48;54.13;102257.50;5085568;27;20048;-66
2022/08/10 05:40:55;;;;;;;4.57;2.95;;;;;;;21.62;54.05;102254.66;5085835;28;20044;-66
2022/08/10 05:43:23;;;;;;;4.95;2.50;;;;;;;21.97;52.87;102260.94;5086337;28;20465;-66
2022/08/10 05:45:51;;;;;;;6.60;2.58;;;;;;;22.28;52.23;102257.59;5087670;28;20457;-67
2022/08/10 05:48:17;;;;;;;3.15;2.35;;;;;;;22.11;51.72;102259.88;5087395;28;20085;-66
2022/08/10 05:50:44;;;;;;;4.97;2.50;;;;;;;22.16;52.48;102253.22;5085643;28;20040;-66
2022/08/10 05:53:10;;;;;;;8.82;2.47;;;;;;;22.14;52.36;102259.63;5087217;28;20498;-67
2022/08/10 05:55:36;;;;;;;5.63;2.97;;;;;;;22.49;51.64;102257.78;5086432;28;20079;-67
2022/08/10 05:58:04;;;;;;;4.32;2.72;;;;;;;22.96;50.09;102264.75;5083182;27;20451;-66
2022/08/10 06:00:33;;;;;;;6.78;2.70;;;;;;;22.70;51.17;102261.47;5070809;28;20133;-66
2022/08/10 06:03:03;;;;;;;6.30;2.92;;;;;;;22.58;50.69;102269.59;5064770;28;20449;-67
2022/08/10 06:05:34;;;;;;;3.50;2.30;;;;;;;22.66;50.86;102261.78;5076344;27;20557;-67
2022/08/10 06:08:05;;;;;;;7.03;3.22;;;;;;;22.90;50.81;102267.94;5084775;27;20507;-67
2022/08/10 06:10:36;;;;;;;6.67;2.80;;;;;;;22.57;51.60;102262.53;5087165;27;20097;-66
2022/08/10 06:15:52;;;;;;;7.03;2.80;;;;;;;24.18;48.13;102259.09;5087389;28;20043;-67
2022/08/10 06:18:19;;;;;;;7.20;3.03;;;;;;;24.65;46.95;102267.53;5085492;28;20124;-67
2022/08/10 06:20:46;;;;;;;12.48;2.55;;;;;;;24.32;47.17;102265.09;5085011;27;20075;-68
2022/08/10 06:23:13;;;;;;;7.88;2.65;;;;;;;24.27;47.15;102261.97;5086594;27;20090;-70
2022/08/10 06:25:40;;;;;;;4.90;2.42;;;;;;;25.09;45.69;102258.31;5084779;27;20093;-73
2022/08/10 06:28:13;;;;;;;11.35;2.85;;;;;;;24.66;46.36;102263.88;5086418;27;20046;-73
2022/08/10 06:30:41;;;;;;;12.13;2.42;;;;;;;25.02;46.39;102259.81;5084254;28;20105;-74
2022/08/10 06:33:09;;;;;;;5.28;2.40;;;;;;;25.83;43.34;102253.38;5086312;28;20449;-73
2022/08/10 06:35:37;;;;;;;8.48;2.50;;;;;;;26.03;42.85;102261.28;5086718;28;20564;-73
2022/08/10 06:38:06;;;;;;;9.20;2.78;;;;;;;26.28;43.09;102253.63;5084339;28;20537;-73
2022/08/10 06:40:35;;;;;;;12.80;2.70;;;;;;;25.39;44.79;102257.38;5085840;28;20048;-73
2022/08/10 06:43:05;;;;;;;7.38;2.70;;;;;;;25.85;43.53;102249.56;5079693;27;20090;-74
2022/08/10 06:45:37;;;;;;;4.55;2.50;;;;;;;26.58;42.84;102256.09;5085177;27;20074;-73
2022/08/10 06:48:07;;;;;;;10.95;2.70;;;;;;;27.00;42.14;102265.47;5087294;27;20090;-73
2022/08/10 06:50:39;;;;;;;14.32;2.95;;;;;;;27.45;41.12;102267.31;5084096;27;20392;-73
2022/08/10 06:53:11;;;;;;;11.50;3.03;;;;;;;28.14;39.39;102261.28;5087455;28;20048;-73
2022/08/10 06:55:39;;;;;;;9.85;2.28;;;;;;;28.38;39.53;102264.16;5076812;27;20040;-73
2022/08/10 06:58:08;;;;;;;11.68;2.65;;;;;;;28.44;38.50;102267.06;5078580;28;20539;-73
2022/08/10 07:00:40;;;;;;;5.30;2.47;;;;;;;29.03;38.12;102257.28;5064909;28;20474;-73
2022/08/10 07:03:10;;;;;;;10.57;2.65;;;;;;;28.22;37.85;102253.25;5075114;27;20044;-73
2022/08/10 07:05:40;;;;;;;5.00;2.40;;;;;;;28.02;39.02;102253.41;5078457;27;20047;-73
2022/08/10 07:08:07;;;;;;;4.60;2.50;;;;;;;28.81;37.60;102244.34;5086416;27;20048;-73
2022/08/10 07:10:34;;;;;;;14.43;2.78;;;;;;;28.84;37.26;102250.28;5083867;27;20048;-73
2022/08/10 07:13:02;;;;;;;4.20;2.63;;;;;;;28.87;37.69;102247.25;5086415;28;20116;-73
2022/08/10 07:15:30;;;;;;;6.07;2.75;;;;;;;28.92;37.50;102247.63;5083502;28;20412;-73
2022/08/10 07:18:00;;;;;;;13.18;2.45;;;;;;;28.91;37.92;102251.31;5084187;28;20044;-73
2022/08/10 07:20:27;;;;;;;5.75;2.38;;;;;;;28.88;37.31;102256.19;5085848;28;20191;-66
2022/08/10 07:22:55;;;;;;;3.88;2.35;;;;;;;28.67;36.95;102248.50;5085258;27;20052;-66
2022/08/10 07:25:24;;;;;;;10.15;2.30;;;;;;;28.35;37.47;102249.13;5085042;27;20051;-66
2022/08/10 07:27:52;;;;;;;6.15;2.40;;;;;;;28.92;38.18;102252.19;5081569;27;20052;-66
2022/08/10 07:30:19;;;;;;;11.52;2.28;;;;;;;29.21;36.28;102247.22;5069706;28;20041;-65
2022/08/10 07:32:47;;;;;;;5.30;2.20;;;;;;;29.00;35.72;102249.50;5093686;28;20101;-65
2022/08/10 07:35:17;;;;;;;5.85;2.20;;;;;;;29.17;36.33;102250.41;5105579;28;20039;-65
2022/08/10 07:37:46;;;;;;;7.50;2.35;;;;;;;29.43;35.61;102257.44;5104169;28;20055;-65
2022/08/10 07:40:14;;;;;;;5.35;2.13;;;;;;;29.41;35.94;102256.78;5104437;27;20499;-65
2022/08/10 07:42:43;;;;;;;5.40;2.22;;;;;;;29.90;34.67;102259.53;5105829;28;20048;-65
2022/08/10 07:45:11;;;;;;;5.63;2.25;;;;;;;29.72;34.45;102251.56;5085051;28;20599;-65
2022/08/10 07:47:41;;;;;;;5.47;2.38;;;;;;;29.76;33.95;102252.06;5081063;28;20048;-65
2022/08/10 07:50:10;;;;;;;5.05;2.15;;;;;;;30.06;34.97;102253.28;5104635;27;20410;-65
2022/08/10 07:52:39;;;;;;;10.48;2.53;;;;;;;30.59;33.18;102250.88;5104455;28;20120;-65
2022/08/10 07:55:08;;;;;;;10.95;2.55;;;;;;;31.05;33.60;102248.34;5106456;28;20414;-65
2022/08/10 07:57:37;;;;;;;6.65;2.10;;;;;;;31.13;32.56;102243.72;5095709;28;20098;-65
2022/08/10 08:00:06;;;;;;;9.32;2.50;;;;;;;30.90;31.69;102249.06;5066928;28;20097;-65
2022/08/10 08:02:37;;;;;;;6.47;2.47;;;;;;;31.55;30.62;102243.34;5084409;28;20079;-65
2022/08/10 08:05:06;;;;;;;5.90;2.30;;;;;;;30.63;33.72;102246.81;5086125;28;20044;-65
2022/08/10 08:07:34;;;;;;;10.32;2.35;;;;;;;30.32;33.06;102233.13;5061561;28;20060;-65
2022/08/10 08:10:04;;;;;;;7.15;2.00;;;;;;;30.72;31.96;102239.47;5090828;28;20043;-65
2022/08/10 08:12:31;;;;;;;9.27;2.20;;;;;;;31.10;31.78;102243.25;5103978;28;20491;-65
2022/08/10 08:14:59;;;;;;;8.43;1.85;;;;;;;31.36;31.16;102238.34;5106290;28;20094;-65
2022/08/10 08:17:26;;;;;;;4.07;1.73;;;;;;;32.14;31.16;102236.25;5105856;28;20101;-68
2022/08/10 08:19:55;;;;;;;7.80;2.15;;;;;;;31.47;31.25;102234.38;5070116;27;20052;-68
2022/08/10 08:22:24;;;;;;;6.55;2.17;;;;;;;32.01;31.61;102232.44;5082178;27;20040;-68
2022/08/10 08:24:54;;;;;;;7.63;1.75;;;;;;;32.43;29.77;102232.72;5070954;28;20048;-68
2022/08/10 08:27:24;;;;;;;6.72;1.80;;;;;;;32.68;28.99;102241.47;5076762;27;20044;-68
2022/08/10 08:29:51;;;;;;;7.10;1.60;;;;;;;32.73;28.98;102237.16;5082169;27;20044;-68
2022/08/10 08:32:21;;;;;;;4.60;1.77;;;;;;;32.89;27.37;102230.66;5085973;28;20062;-68
2022/08/10 08:34:49;;;;;;;4.25;1.73;;;;;;;33.61;27.78;102236.13;5081807;27;20044;-68
2022/08/10 08:37:17;;;;;;;4.60;1.50;;;;;;;33.98;26.94;102229.56;5083462;28;20109;-68
2022/08/10 08:39:44;;;;;;;5.63;1.80;;;;;;;34.44;26.17;102238.94;5082064;27;20048;-68
2022/08/10 08:42:22;;;;;;;6.65;1.50;;;;;;;34.36;26.34;102230.09;5081597;28;20051;-68
2022/08/10 08:45:05;;;;;;;7.32;1.48;;;;;;;32.72;26.78;102232.75;5083813;27;20052;-68
2022/08/10 08:47:46;;;;;;;6.00;1.70;;;;;;;32.96;27.32;102234.34;5077882;27;20049;-68
2022/08/10 08:50:24;;;;;;;2.53;1.40;;;;;;;33.34;25.64;102221.41;5058110;28;20127;-68
2022/08/10 08:53:01;;;;;;;3.03;1.48;;;;;;;33.34;26.38;102220.56;5065412;28;20041;-68
2022/08/10 08:55:47;;;;;;;4.47;1.50;;;;;;;33.24;27.31;102221.72;5088194;28;20044;-68
2022/08/10 08:58:30;;;;;;;4.68;1.65;;;;;;;33.46;26.38;102217.16;5082702;27;20048;-68
2022/08/10 09:01:12;;;;;;;5.63;1.60;;;;;;;33.26;26.20;102221.53;5075292;28;20622;-68
2022/08/10 09:03:53;;;;;;;4.00;1.30;;;;;;;33.91;25.89;102206.91;5087320;27;20134;-68
2022/08/10 09:06:41;;;;;;;4.82;1.75;;;;;;;34.52;25.11;102208.81;5087035;27;20044;-68
2022/08/10 09:09:31;;;;;;;4.10;1.60;;;;;;;34.17;24.38;102212.59;5076608;28;20060;-69
2022/08/10 09:12:11;;;;;;;5.05;1.50;;;;;;;34.51;22.57;102209.88;5087803;28;20039;-68
2022/08/10 09:14:44;;;;;;;3.45;1.55;;;;;;;33.51;24.17;102201.09;5101134;28;20098;-68
2022/08/10 09:17:17;;;;;;;5.57;1.33;;;;;;;33.55;25.93;102205.13;5087547;28;20128;-68
2022/08/10 09:20:01;;;;;;;3.83;1.30;;;;;;;34.08;25.49;102208.28;5086537;28;20769;-68
2022/08/10 09:22:32;;;;;;;5.22;1.48;;;;;;;34.46;25.29;102203.34;5086031;28;20059;-68
2022/08/10 09:25:12;;;;;;;4.78;1.40;;;;;;;33.74;23.44;102195.44;5086408;28;20044;-68
2022/08/10 09:27:42;;;;;;;4.60;1.60;;;;;;;33.87;25.63;102208.34;5088457;28;20098;-67
2022/08/10 09:30:10;;;;;;;4.82;1.33;;;;;;;33.74;24.78;102193.56;5077219;27;20675;-67
2022/08/10 09:32:41;;;;;;;4.65;1.30;;;;;;;33.09;24.52;102191.00;5087331;27;20397;-67
2022/08/10 09:35:12;;;;;;;;;;;;;;;33.25;24.48;102196.25;5066467;28;20048;-67
2022/08/10 09:37:46;;;;;;;5.20;1.88;;;;;;;33.77;24.78;102188.78;5065409;28;20364;-67
2022/08/10 09:40:19;;;;;;;13.43;1.70;;;;;;;34.73;25.15;102193.44;5066460;28;20048;-67
2022/08/10 09:42:53;;;;;;;4.57;1.23;;;;;;;34.94;23.64;102183.25;5076948;28;20688;-67
2022/08/10 09:45:29;;;;;;;6.30;1.38;;;;;;;34.14;24.83;102183.03;5087777;28;20404;-67
2022/08/10 09:48:06;;;;;;;3.33;1.05;;;;;;;33.07;23.75;102187.63;5088739;28;20040;-68
2022/08/10 09:50:40;;;;;;;5.55;1.38;;;;;;;33.37;24.63;102191.09;5085742;28;20040;-68
2022/08/10 09:53:16;;;;;;;12.57;2.15;;;;;;;32.74;25.56;102181.78;5096547;27;20105;-68
2022/08/10 09:55:51;;;;;;;4.32;1.40;;;;;;;33.52;23.87;102186.44;5084170;28;20044;-68
2022/08/10 09:58:39;;;;;;;2.67;1.17;;;;;;;34.28;24.75;102182.06;5069958;28;20048;-68
2022/08/10 10:01:13;;;;;;;4.00;1.30;;;;;;;34.79;22.35;102181.72;5078147;28;20074;-68
2022/08/10 10:03:52;;;;;;;3.15;1.10;;;;;;;35.62;23.87;102173.16;5082733;27;20044;-67
2022/08/10 10:06:26;;;;;;;2.30;1.30;;;;;;;35.60;21.86;102176.06;5087038;27;20040;-68
2022/08/10 10:09:00;;;;;;;2.10;1.33;;;;;;;35.65;23.30;102167.28;5074847;28;20036;-68
2022/08/10 10:11:36;;;;;;;5.70;1.55;;;;;;;35.94;23.45;102166.00;5079542;27;20060;-68
2022/08/10 10:14:23;;;;;;;3.00;1.27;;;;;;;36.32;22.27;102158.81;5085341;27;20097;-68
2022/08/10 10:17:02;;;;;;;4.13;1.20;;;;;;;36.09;22.12;102148.38;5076559;27;20101;-68
2022/08/10 10:19:45;;;;;;;4.93;1.13;;;;;;;35.85;21.83;102149.00;5081977;28;20046;-68
2022/08/10 10:22:25;;;;;;;5.75;1.10;;;;;;;35.95;21.65;102157.59;5067161;27;20048;-68
2022/08/10 10:24:59;;;;;;;2.72;1.15;;;;;;;36.29;23.19;102153.75;5078122;27;20054;-68
2022/08/10 10:27:33;;;;;;;3.70;1.10;;;;;;;36.27;21.39;102144.94;5085335;27;20056;-68
2022/08/10 10:30:05;;;;;;;3.70;1.20;;;;;;;35.83;22.26;102153.00;5086142;27;20529;-68
2022/08/10 10:32:46;;;;;;;3.20;1.10;;;;;;;34.04;22.50;102147.97;5086991;27;20036;-68
2022/08/10 10:35:23;;;;;;;4.15;1.10;;;;;;;33.37;23.10;102133.19;5074130;27;20068;-68
2022/08/10 10:37:52;;;;;;;5.30;1.15;;;;;;;33.96;24.56;102139.94;5075252;27;20050;-68
2022/08/10 10:40:20;;;;;;;3.90;1.48;;;;;;;34.36;23.20;102143.81;5085648;27;20409;-67
2022/08/10 10:42:56;;;;;;;2.15;1.10;;;;;;;35.10;23.09;102139.28;5084850;27;20450;-68
2022/08/10 10:45:31;;;;;;;3.30;1.10;;;;;;;35.28;22.18;102130.50;5082619;28;20097;-68
2022/08/10 10:48:08;;;;;;;2.45;1.10;;;;;;;35.56;21.91;102125.69;5070828;27;20121;-68
2022/08/10 10:50:43;;;;;;;1.83;1.00;;;;;;;34.77;22.94;102132.06;5084810;28;20106;-68
2022/08/10 10:53:27;;;;;;;6.25;1.20;;;;;;;34.53;22.38;102142.41;5084190;27;20462;-68
2022/08/10 10:56:00;;;;;;;2.45;1.13;;;;;;;34.88;22.51;102131.47;5085069;27;20068;-68
2022/08/10 10:58:36;;;;;;;2.85;1.10;;;;;;;34.83;22.66;102132.06;5085608;27;20093;-68
2022/08/10 11:01:10;;;;;;;3.90;1.45;;;;;;;33.69;22.04;102133.50;5085072;28;20428;-68
2022/08/10 11:04:01;;;;;;;5.57;1.38;;;;;;;34.00;23.59;102133.06;5085688;27;20551;-68
2022/08/10 11:06:44;;;;;;;2.33;1.30;;;;;;;34.58;23.37;102128.19;5084805;27;20044;-68
2022/08/10 11:09:15;;;;;;;3.15;1.02;;;;;;;35.13;23.24;102119.78;5084031;27;20052;-67
2022/08/10 11:11:45;;;;;;;3.05;0.88;;;;;;;34.48;22.01;102127.72;5085615;27;20069;-68
2022/08/10 11:14:22;;;;;;;4.30;1.10;;;;;;;33.42;23.45;102134.25;5081995;27;20093;-67
2022/08/10 11:16:53;;;;;;;4.22;1.00;;;;;;;32.65;23.86;102131.34;5083377;28;20036;-67
2022/08/10 11:19:25;;;;;;;1.92;1.13;;;;;;;32.65;25.33;102127.78;5085235;28;20101;-68
2022/08/10 11:22:14;;;;;;;3.55;1.30;;;;;;;33.04;23.89;102119.22;5072755;28;20068;-68
2022/08/10 11:24:46;;;;;;;1.98;0.90;;;;;;;33.27;23.40;102115.31;5063300;28;20094;-68
2022/08/10 11:27:21;;;;;;;3.20;1.35;;;;;;;34.13;23.03;102126.88;5065714;28;20424;-67
2022/08/10 11:29:55;;;;;;;3.45;0.93;;;;;;;34.70;21.59;102119.22;5084841;27;20048;-68
2022/08/10 11:32:25;;;;;;;10.52;1.30;;;;;;;34.80;21.08;102113.41;5071752;27;20048;-68
2022/08/10 11:34:58;;;;;;;5.25;1.30;;;;;;;34.59;22.27;102111.63;5084839;27;20507;-68
2022/08/10 11:37:34;;;;;;;3.13;1.10;;;;;;;34.78;22.62;102107.31;5083111;28;20067;-68
2022/08/10 11:40:08;;;;;;;2.65;1.00;;;;;;;34.69;20.56;102103.94;5082948;28;20082;-68
2022/08/10 11:42:42;;;;;;;3.13;0.93;;;;;;;35.09;21.07;102104.88;5083541;28;20052;-68